createdAt,value
2022-08-11T00:01:11.241Z,100.00
2022-08-11T00:03:48.367Z,100.00
2022-08-11T00:06:26.725Z,100.00
2022-08-11T00:08:55.817Z,100.00
2022-08-11T00:11:32.839Z,100.00
2022-08-11T00:14:01.499Z,100.00
2022-08-11T00:16:32.087Z,100.00
2022-08-11T00:19:01.275Z,100.00
2022-08-11T00:21:54.677Z,100.00
2022-08-11T00:24:18.875Z,100.00
2022-08-11T00:26:50.698Z,100.00
2022-08-11T00:29:19.882Z,100.00
2022-08-11T00:31:52.554Z,100.00
2022-08-11T00:34:24.587Z,100.00
2022-08-11T00:36:56.868Z,100.00
2022-08-11T00:39:28.545Z,100.00
2022-08-11T00:42:11.605Z,100.00
2022-08-11T00:44:49.212Z,100.00
2022-08-11T00:47:28.661Z,100.00
2022-08-11T00:50:19.402Z,100.00
2022-08-11T00:53:07.255Z,100.00
2022-08-11T00:55:56.258Z,100.00
2022-08-11T00:59:03.100Z,100.00
2022-08-11T01:01:49.510Z,100.00
2022-08-11T01:04:56.117Z,100.00
2022-08-11T01:08:21.020Z,100.00
2022-08-11T01:11:07.122Z,100.00
2022-08-11T01:14:05.508Z,100.00
2022-08-11T01:17:08.969Z,100.00
2022-08-11T01:20:47.043Z,100.00
2022-08-11T01:23:23.174Z,100.00
2022-08-11T01:26:31.110Z,100.00
2022-08-11T01:29:35.810Z,100.00
2022-08-11T01:32:19.835Z,100.00
2022-08-11T01:35:19.770Z,100.00
2022-08-11T01:38:21.142Z,100.00
2022-08-11T01:41:23.503Z,100.00
2022-08-11T01:44:31.490Z,100.00
2022-08-11T01:47:35.440Z,100.00
2022-08-11T01:50:14.578Z,100.00
2022-08-11T01:52:54.547Z,100.00
2022-08-11T01:55:27.963Z,100.00
2022-08-11T01:58:06.862Z,100.00
2022-08-11T02:00:50.153Z,100.00
2022-08-11T02:03:25.615Z,100.00
2022-08-11T02:06:03.299Z,100.00
2022-08-11T02:08:50.364Z,100.00
2022-08-11T02:11:35.768Z,100.00
2022-08-11T02:14:22.687Z,100.00
2022-08-11T02:17:08.858Z,100.00
2022-08-11T02:20:07.328Z,100.00
2022-08-11T02:23:04.596Z,100.00
2022-08-11T02:25:39.573Z,100.00
2022-08-11T02:28:11.804Z,100.00
2022-08-11T02:31:08.823Z,100.00
2022-08-11T02:33:43.566Z,100.00
2022-08-11T02:36:19.745Z,100.00
2022-08-11T02:38:55.087Z,100.00
2022-08-11T02:41:44.803Z,100.00
2022-08-11T02:44:29.510Z,100.00
2022-08-11T02:47:04.446Z,100.00
2022-08-11T02:50:02.565Z,100.00
2022-08-11T02:52:42.150Z,100.00
2022-08-11T02:55:47.986Z,100.00
2022-08-11T02:58:17.842Z,100.00
2022-08-11T03:00:55.079Z,100.00
2022-08-11T03:03:31.121Z,100.00
2022-08-11T03:06:13.670Z,100.00
2022-08-11T03:08:55.632Z,100.00
2022-08-11T03:12:00.180Z,100.00
2022-08-11T03:14:54.158Z,100.00
2022-08-11T03:17:30.703Z,100.00
2022-08-11T03:20:12.447Z,100.00
2022-08-11T03:22:52.795Z,100.00
2022-08-11T03:25:32.591Z,100.00
2022-08-11T03:28:16.379Z,100.00
2022-08-11T03:30:52.021Z,100.00
2022-08-11T03:33:42.611Z,100.00
2022-08-11T03:36:14.363Z,100.00
2022-08-11T03:39:11.182Z,100.00
2022-08-11T03:42:01.319Z,100.00
2022-08-11T03:44:51.350Z,100.00
2022-08-11T03:47:55.269Z,100.00
2022-08-11T03:50:37.501Z,100.00
2022-08-11T03:53:17.459Z,100.00
2022-08-11T03:56:23.915Z,100.00
2022-08-11T03:59:18.912Z,100.00
2022-08-11T04:02:09.859Z,100.00
2022-08-11T04:05:12.706Z,100.00
2022-08-11T04:08:13.172Z,100.00
2022-08-11T04:11:05.313Z,100.00
2022-08-11T04:14:20.052Z,100.00
2022-08-11T04:17:02.830Z,100.00
2022-08-11T04:20:02.792Z,100.00
2022-08-11T04:23:08.783Z,100.00
2022-08-11T04:25:58.513Z,100.00
2022-08-11T04:28:50.352Z,100.00
2022-08-11T04:31:44.277Z,100.00
2022-08-11T04:34:52.523Z,100.00
2022-08-11T04:37:53.538Z,100.00
2022-08-11T04:40:51.861Z,100.00
2022-08-11T04:44:02.076Z,100.00
2022-08-11T04:48:01.707Z,100.00
2022-08-11T04:51:15.714Z,100.00
2022-08-11T04:54:15.128Z,100.00
2022-08-11T04:57:03.389Z,100.00
2022-08-11T05:00:07.123Z,100.00
2022-08-11T05:03:31.580Z,100.00
2022-08-11T05:06:32.360Z,100.00
2022-08-11T05:09:26.398Z,100.00
2022-08-11T05:12:21.400Z,100.00
2022-08-11T05:15:08.946Z,100.00
2022-08-11T05:17:57.849Z,100.00
2022-08-11T05:20:47.082Z,100.00
2022-08-11T05:23:35.002Z,100.00
2022-08-11T05:26:46.736Z,100.00
2022-08-11T05:30:01.798Z,100.00
2022-08-11T05:33:01.472Z,100.00
2022-08-11T05:36:00.100Z,100.00
2022-08-11T05:38:45.379Z,100.00
2022-08-11T05:41:31.521Z,100.00
2022-08-11T05:44:21.297Z,100.00
2022-08-11T05:47:08.258Z,100.00
2022-08-11T05:49:53.863Z,100.00
2022-08-11T05:52:42.037Z,100.00
2022-08-11T05:55:29.679Z,100.00
2022-08-11T05:58:00.566Z,100.00
2022-08-11T06:00:29.110Z,100.00
2022-08-11T06:03:00.942Z,100.00
2022-08-11T06:05:38.357Z,100.00
2022-08-11T06:08:13.459Z,100.00
2022-08-11T06:10:44.756Z,100.00
2022-08-11T06:13:17.279Z,100.00
2022-08-11T06:15:46.744Z,100.00
2022-08-11T06:18:15.754Z,100.00
2022-08-11T06:20:51.456Z,100.00
2022-08-11T06:23:23.937Z,100.00
2022-08-11T06:25:56.411Z,100.00
2022-08-11T06:28:32.813Z,100.00
2022-08-11T06:31:01.782Z,100.00
2022-08-11T06:33:36.572Z,100.00
2022-08-11T06:36:12.104Z,100.00
2022-08-11T06:38:50.755Z,100.00
2022-08-11T06:41:33.572Z,100.00
2022-08-11T06:44:16.391Z,100.00
2022-08-11T06:46:47.676Z,100.00
2022-08-11T06:49:31.096Z,100.00
2022-08-11T06:52:04.544Z,100.00
2022-08-11T06:54:41.429Z,100.00
2022-08-11T06:57:32.505Z,100.00
2022-08-11T07:00:18.714Z,100.00
2022-08-11T07:02:53.330Z,100.00
2022-08-11T07:05:25.706Z,100.00
2022-08-11T07:08:42.004Z,100.00
2022-08-11T07:11:45.715Z,100.00
2022-08-11T07:14:54.197Z,100.00
2022-08-11T07:17:32.903Z,100.00
2022-08-11T07:20:22.035Z,100.00
2022-08-11T07:23:13.485Z,100.00
2022-08-11T07:26:10.338Z,100.00
2022-08-11T07:28:59.227Z,100.00
2022-08-11T07:31:45.055Z,100.00
2022-08-11T07:34:21.521Z,100.00
2022-08-11T07:36:54.759Z,100.00
2022-08-11T07:39:24.404Z,100.00
2022-08-11T07:41:54.171Z,100.00
2022-08-11T07:44:29.413Z,100.00
2022-08-11T07:47:19.447Z,100.00
2022-08-11T07:50:08.880Z,100.00
2022-08-11T07:52:40.000Z,100.00
2022-08-11T07:55:13.220Z,100.00
2022-08-11T07:58:16.191Z,100.00
2022-08-11T08:01:10.204Z,100.00
2022-08-11T08:03:58.303Z,100.00
2022-08-11T08:06:45.113Z,100.00
2022-08-11T08:09:31.759Z,100.00
2022-08-11T08:12:19.492Z,100.00
2022-08-11T08:15:05.202Z,100.00
2022-08-11T08:18:09.163Z,100.00
2022-08-11T08:20:47.291Z,100.00
2022-08-11T08:23:15.882Z,100.00
2022-08-11T08:25:45.586Z,100.00
2022-08-11T08:28:17.166Z,100.00
2022-08-11T08:30:47.992Z,100.00
2022-08-11T08:33:19.822Z,100.00
2022-08-11T08:35:54.047Z,100.00
2022-08-11T08:38:22.907Z,100.00
2022-08-11T08:40:56.407Z,100.00
2022-08-11T08:43:25.466Z,100.00
2022-08-11T08:45:57.142Z,100.00
2022-08-11T08:48:27.240Z,100.00
2022-08-11T08:51:22.030Z,100.00
2022-08-11T08:53:53.880Z,100.00
2022-08-11T08:56:29.555Z,100.00
2022-08-11T08:59:01.186Z,100.00
2022-08-11T09:01:32.249Z,100.00
2022-08-11T09:04:11.844Z,100.00
2022-08-11T09:06:44.095Z,100.00
2022-08-11T09:09:18.794Z,100.00
2022-08-11T09:11:53.594Z,100.00
2022-08-11T09:14:25.297Z,100.00
2022-08-11T09:16:54.233Z,100.00
2022-08-11T09:19:22.710Z,100.00
2022-08-11T09:22:08.994Z,100.00
2022-08-11T09:24:56.023Z,100.00
2022-08-11T09:27:25.087Z,100.00
2022-08-11T09:29:54.650Z,100.00
2022-08-11T09:32:23.430Z,100.00
2022-08-11T09:34:54.239Z,100.00
2022-08-11T09:37:54.806Z,100.00
2022-08-11T09:40:30.928Z,100.00
2022-08-11T09:43:17.776Z,100.00
2022-08-11T09:45:50.582Z,100.00
2022-08-11T09:48:19.392Z,100.00
2022-08-11T09:50:50.689Z,100.00
2022-08-11T09:53:38.158Z,100.00
2022-08-11T09:56:30.179Z,100.00
2022-08-11T09:58:59.188Z,100.00
2022-08-11T10:01:31.876Z,100.00
2022-08-11T10:04:04.767Z,100.00
2022-08-11T10:06:54.151Z,100.00
2022-08-11T10:09:25.751Z,100.00
2022-08-11T10:11:59.214Z,100.00
2022-08-11T10:14:48.317Z,100.00
2022-08-11T10:17:19.853Z,100.00
2022-08-11T10:20:02.005Z,100.00
2022-08-11T10:22:52.014Z,100.00
2022-08-11T10:25:39.195Z,99.72
2022-08-11T10:28:28.711Z,97.75
2022-08-11T10:31:16.752Z,98.22
2022-08-11T10:34:03.360Z,97.30
2022-08-11T10:36:33.615Z,98.41
2022-08-11T10:39:03.729Z,97.06
2022-08-11T10:42:07.373Z,95.42
2022-08-11T10:44:41.287Z,96.55
2022-08-11T10:47:29.212Z,95.16
2022-08-11T10:50:15.479Z,93.20
2022-08-11T10:53:03.195Z,93.91
2022-08-11T10:55:48.722Z,93.58
2022-08-11T10:58:36.871Z,92.75
2022-08-11T11:01:05.808Z,92.51
2022-08-11T11:03:35.627Z,92.96
2022-08-11T11:06:12.934Z,94.05
2022-08-11T11:09:04.540Z,92.85
2022-08-11T11:11:56.012Z,93.12
2022-08-11T11:14:50.822Z,92.38
2022-08-11T11:17:45.558Z,88.69
2022-08-11T11:20:35.844Z,92.65
2022-08-11T11:23:08.779Z,92.99
2022-08-11T11:26:11.013Z,90.29
2022-08-11T11:28:55.768Z,91.46
2022-08-11T11:31:35.259Z,90.21
2022-08-11T11:34:18.438Z,90.17
2022-08-11T11:36:50.800Z,91.03
2022-08-11T11:39:21.635Z,91.42
2022-08-11T11:41:53.196Z,91.59
2022-08-11T11:44:25.275Z,91.41
2022-08-11T11:46:56.791Z,89.76
2022-08-11T11:49:28.137Z,89.14
2022-08-11T11:51:58.213Z,89.19
2022-08-11T11:54:28.816Z,89.41
2022-08-11T11:57:19.081Z,89.37
2022-08-11T12:00:04.717Z,90.55
2022-08-11T12:02:34.740Z,91.16
2022-08-11T12:05:03.296Z,90.21
2022-08-11T12:08:05.143Z,89.89
2022-08-11T12:10:38.238Z,87.33
2022-08-11T12:13:24.659Z,86.19
2022-08-11T12:16:31.708Z,88.46
2022-08-11T12:18:47.756Z,88.77
2022-08-11T12:21:18.963Z,89.21
2022-08-11T12:24:08.581Z,87.86
2022-08-11T12:27:15.353Z,87.21
2022-08-11T12:29:44.484Z,88.13
2022-08-11T12:32:13.055Z,86.15
2022-08-11T12:34:42.464Z,86.39
2022-08-11T12:37:13.740Z,83.81
2022-08-11T12:40:15.666Z,81.80
2022-08-11T12:43:20.743Z,84.45
2022-08-11T12:45:52.293Z,86.07
2022-08-11T12:48:58.487Z,86.45
2022-08-11T12:52:11.398Z,87.88
2022-08-11T12:54:51.533Z,84.91
2022-08-11T12:57:43.168Z,88.51
2022-08-11T13:00:29.579Z,87.20
2022-08-11T13:03:16.003Z,85.92
2022-08-11T13:05:45.442Z,85.23
2022-08-11T13:08:15.861Z,83.99
2022-08-11T13:11:01.854Z,82.53
2022-08-11T13:13:55.459Z,84.63
2022-08-11T13:16:20.811Z,84.22
2022-08-11T13:18:50.249Z,84.36
2022-08-11T13:21:20.575Z,83.85
2022-08-11T13:24:00.873Z,85.97
2022-08-11T13:26:47.899Z,84.52
2022-08-11T13:29:20.371Z,82.02
2022-08-11T13:31:49.266Z,81.27
2022-08-11T13:34:19.690Z,80.68
2022-08-11T13:36:50.252Z,82.68
2022-08-11T13:39:20.611Z,81.12
2022-08-11T13:41:51.268Z,77.83
2022-08-11T13:44:25.276Z,78.07
2022-08-11T13:46:55.719Z,77.25
2022-08-11T13:49:24.423Z,76.96
2022-08-11T13:51:55.320Z,76.19
2022-08-11T13:54:28.646Z,75.33
2022-08-11T13:57:01.006Z,73.63
2022-08-11T13:59:31.398Z,75.14
2022-08-11T14:02:28.781Z,73.82
2022-08-11T14:04:58.145Z,74.01
2022-08-11T14:07:35.647Z,75.22
2022-08-11T14:10:08.572Z,74.12
2022-08-11T14:13:04.660Z,75.23
2022-08-11T14:15:35.177Z,74.13
2022-08-11T14:18:07.662Z,72.89
2022-08-11T14:20:58.104Z,72.79
2022-08-11T14:23:28.654Z,68.46
2022-08-11T14:26:16.132Z,69.39
2022-08-11T14:28:45.381Z,74.04
2022-08-11T14:31:15.748Z,72.53
2022-08-11T14:34:00.377Z,72.32
2022-08-11T14:36:31.982Z,72.30
2022-08-11T14:39:02.035Z,71.74
2022-08-11T14:42:12.088Z,72.23
2022-08-11T14:44:56.258Z,73.57
2022-08-11T14:47:25.902Z,72.81
2022-08-11T14:50:10.072Z,70.68
2022-08-11T14:52:44.125Z,71.74
2022-08-11T14:55:30.959Z,71.51
2022-08-11T14:58:01.828Z,71.17
2022-08-11T15:00:31.189Z,70.55
2022-08-11T15:03:12.233Z,70.92
2022-08-11T15:05:56.042Z,68.69
2022-08-11T15:08:42.306Z,70.12
2022-08-11T15:11:32.383Z,71.25
2022-08-11T15:14:03.788Z,70.34
2022-08-11T15:16:49.674Z,70.97
2022-08-11T15:19:21.425Z,70.73
2022-08-11T15:22:08.055Z,70.41
2022-08-11T15:24:37.134Z,70.11
2022-08-11T15:27:27.178Z,69.37
2022-08-11T15:30:18.267Z,70.44
2022-08-11T15:33:19.667Z,70.71
2022-08-11T15:36:05.395Z,70.49
2022-08-11T15:38:36.816Z,71.03
2022-08-11T15:41:24.622Z,71.50
2022-08-11T15:44:13.111Z,70.76
2022-08-11T15:46:45.707Z,70.60
2022-08-11T15:49:21.812Z,69.52
2022-08-11T15:52:01.492Z,70.14
2022-08-11T15:54:35.387Z,70.05
2022-08-11T15:57:05.655Z,70.82
2022-08-11T15:59:55.199Z,70.82
2022-08-11T16:02:44.200Z,71.27
2022-08-11T16:05:45.294Z,71.09
2022-08-11T16:08:04.524Z,72.80
2022-08-11T16:10:34.092Z,71.58
2022-08-11T16:13:22.552Z,71.45
2022-08-11T16:16:10.225Z,72.12
2022-08-11T16:18:44.100Z,71.80
2022-08-11T16:21:33.889Z,72.21
2022-08-11T16:24:05.874Z,71.70
2022-08-11T16:27:10.874Z,71.73
2022-08-11T16:29:26.300Z,71.56
2022-08-11T16:32:14.853Z,71.36
2022-08-11T16:35:03.870Z,71.50
2022-08-11T16:37:52.673Z,71.53
2022-08-11T16:40:22.729Z,72.15
2022-08-11T16:43:11.334Z,72.96
2022-08-11T16:45:59.269Z,72.39
2022-08-11T16:48:35.946Z,72.55
2022-08-11T16:51:07.102Z,71.13
2022-08-11T16:53:59.593Z,71.97
2022-08-11T16:56:33.996Z,71.28
2022-08-11T16:59:15.949Z,72.01
2022-08-11T17:01:47.663Z,72.23
2022-08-11T17:04:48.746Z,71.90
2022-08-11T17:07:40.444Z,72.68
2022-08-11T17:10:51.752Z,72.99
2022-08-11T17:13:27.178Z,74.71
2022-08-11T17:16:08.460Z,75.94
2022-08-11T17:18:43.167Z,76.39
2022-08-11T17:21:18.584Z,78.06
2022-08-11T17:23:50.605Z,77.04
2022-08-11T17:26:22.559Z,77.64
2022-08-11T17:28:53.981Z,77.52
2022-08-11T17:31:41.674Z,77.98
2022-08-11T17:34:27.826Z,77.53
2022-08-11T17:36:56.656Z,76.76
2022-08-11T17:39:30.676Z,76.77
2022-08-11T17:42:19.050Z,77.32
2022-08-11T17:45:05.341Z,77.21
2022-08-11T17:47:52.640Z,78.33
2022-08-11T17:50:22.108Z,78.30
2022-08-11T17:53:08.488Z,77.92
2022-08-11T17:55:57.638Z,78.69
2022-08-11T17:58:44.690Z,78.86
2022-08-11T18:01:13.586Z,78.80
2022-08-11T18:03:56.439Z,79.23
2022-08-11T18:06:34.902Z,80.62
2022-08-11T18:09:22.805Z,80.99
2022-08-11T18:12:13.026Z,81.43
2022-08-11T18:15:01.198Z,82.33
2022-08-11T18:17:46.620Z,82.48
2022-08-11T18:20:33.107Z,82.52
2022-08-11T18:23:41.651Z,82.63
2022-08-11T18:26:30.591Z,83.06
2022-08-11T18:29:18.979Z,83.74
2022-08-11T18:32:08.274Z,83.90
2022-08-11T18:34:59.026Z,83.42
2022-08-11T18:37:49.139Z,83.90
2022-08-11T18:40:38.804Z,83.18
2022-08-11T18:43:28.464Z,83.93
2022-08-11T18:46:19.752Z,84.09
2022-08-11T18:49:15.345Z,84.25
2022-08-11T18:52:05.395Z,84.17
2022-08-11T18:54:54.954Z,85.75
2022-08-11T18:57:49.728Z,85.69
2022-08-11T19:00:41.005Z,86.60
2022-08-11T19:03:29.843Z,86.70
2022-08-11T19:06:39.134Z,86.25
2022-08-11T19:09:25.918Z,87.11
2022-08-11T19:12:13.707Z,86.28
2022-08-11T19:15:01.274Z,87.21
2022-08-11T19:17:49.890Z,88.23
2022-08-11T19:20:40.984Z,88.38
2022-08-11T19:23:29.846Z,88.48
2022-08-11T19:26:17.203Z,88.31
2022-08-11T19:29:06.778Z,89.49
2022-08-11T19:31:54.640Z,89.68
2022-08-11T19:34:42.715Z,90.45
2022-08-11T19:37:29.991Z,90.81
2022-08-11T19:40:19.795Z,91.09
2022-08-11T19:43:16.814Z,91.17
2022-08-11T19:46:13.262Z,91.31
2022-08-11T19:49:00.396Z,91.48
2022-08-11T19:51:47.643Z,91.51
2022-08-11T19:54:43.687Z,91.89
2022-08-11T19:57:29.763Z,91.20
2022-08-11T20:00:16.701Z,90.95
2022-08-11T20:03:04.915Z,91.79
2022-08-11T20:05:59.459Z,92.42
2022-08-11T20:08:47.876Z,92.81
2022-08-11T20:11:37.812Z,92.65
2022-08-11T20:14:24.931Z,92.50
2022-08-11T20:17:11.883Z,91.82
2022-08-11T20:22:49.561Z,93.07
2022-08-11T20:25:36.845Z,93.06
2022-08-11T20:28:24.862Z,93.65
2022-08-11T20:31:11.887Z,93.65
2022-08-11T20:33:59.035Z,95.04
2022-08-11T20:36:48.726Z,94.70
2022-08-11T20:39:41.735Z,95.19
2022-08-11T20:42:30.495Z,95.59
2022-08-11T20:45:23.922Z,95.62
2022-08-11T20:48:15.386Z,95.34
2022-08-11T20:51:06.213Z,95.75
2022-08-11T20:53:54.852Z,95.75
2022-08-11T20:56:41.505Z,95.85
2022-08-11T20:59:33.185Z,96.69
2022-08-11T21:02:27.046Z,96.71
2022-08-11T21:05:13.092Z,97.22
2022-08-11T21:08:07.552Z,97.54
2022-08-11T21:10:56.864Z,96.94
2022-08-11T21:13:47.078Z,97.49
2022-08-11T21:16:42.318Z,97.80
2022-08-11T21:20:01.478Z,99.04
2022-08-11T21:22:59.047Z,100.00
2022-08-11T21:25:54.493Z,99.47
2022-08-11T21:28:40.707Z,98.97
2022-08-11T21:31:30.855Z,100.00
2022-08-11T21:34:16.667Z,100.00
2022-08-11T21:37:04.990Z,100.00
2022-08-11T21:39:52.557Z,100.00
2022-08-11T21:42:39.836Z,100.00
2022-08-11T21:45:27.934Z,100.00
2022-08-11T21:48:14.759Z,100.00
2022-08-11T21:50:59.841Z,100.00
2022-08-11T21:53:46.740Z,100.00
2022-08-11T21:56:33.367Z,100.00
2022-08-11T21:59:20.853Z,100.00
2022-08-11T22:02:12.364Z,100.00
2022-08-11T22:04:58.848Z,100.00
2022-08-11T22:07:44.507Z,100.00
2022-08-11T22:10:40.294Z,100.00
2022-08-11T22:13:29.912Z,100.00
2022-08-11T22:16:15.940Z,100.00
2022-08-11T22:19:02.053Z,100.00
2022-08-11T22:22:03.203Z,100.00
2022-08-11T22:24:51.288Z,100.00
2022-08-11T22:27:38.548Z,100.00
2022-08-11T22:30:25.254Z,100.00
2022-08-11T22:33:11.882Z,100.00
2022-08-11T22:36:01.780Z,100.00
2022-08-11T22:38:48.132Z,100.00
2022-08-11T22:41:33.965Z,100.00
2022-08-11T22:44:21.368Z,100.00
2022-08-11T22:47:09.781Z,100.00
2022-08-11T22:49:58.687Z,100.00
2022-08-11T22:52:47.912Z,100.00
2022-08-11T22:55:34.146Z,100.00
2022-08-11T22:58:21.072Z,100.00
2022-08-11T23:01:08.035Z,100.00
2022-08-11T23:03:53.910Z,100.00
2022-08-11T23:06:40.247Z,100.00
2022-08-11T23:09:26.959Z,100.00
2022-08-11T23:12:13.027Z,100.00
2022-08-11T23:14:59.806Z,100.00
2022-08-11T23:17:47.108Z,100.00
2022-08-11T23:20:45.469Z,100.00
2022-08-11T23:23:38.558Z,100.00
2022-08-11T23:26:24.750Z,100.00
2022-08-11T23:29:11.787Z,100.00
2022-08-11T23:31:57.670Z,100.00
2022-08-11T23:35:04.062Z,100.00
2022-08-11T23:37:50.823Z,100.00
2022-08-11T23:40:36.070Z,100.00
2022-08-11T23:43:21.934Z,100.00
2022-08-11T23:46:07.408Z,100.00
2022-08-11T23:48:55.392Z,100.00
2022-08-11T23:51:44.219Z,100.00
2022-08-11T23:54:35.104Z,100.00
2022-08-11T23:57:23.471Z,100.00
